sensor_id;sensor_type;location;lat;lon;timestamp;P1;durP1;ratioP1;P2;durP2;ratioP2
6475;SDS011;3271;51.910;5.840;2022-10-31T00:00:39;6.10;;;4.70;;
6475;SDS011;3271;51.910;5.840;2022-10-31T00:03:05;8.45;;;5.50;;
6475;SDS011;3271;51.910;5.840;2022-10-31T00:05:31;8.25;;;5.82;;
6475;SDS011;3271;51.910;5.840;2022-10-31T00:07:57;8.50;;;5.53;;
6475;SDS011;3271;51.910;5.840;2022-10-31T00:10:23;8.65;;;5.20;;
6475;SDS011;3271;51.910;5.840;2022-10-31T00:12:49;7.25;;;5.97;;
6475;SDS011;3271;51.910;5.840;2022-10-31T00:15:15;8.05;;;5.95;;
6475;SDS011;3271;51.910;5.840;2022-10-31T00:17:41;6.20;;;5.20;;
6475;SDS011;3271;51.910;5.840;2022-10-31T00:20:07;10.02;;;5.53;;
6475;SDS011;3271;51.910;5.840;2022-10-31T00:22:33;7.32;;;6.22;;
6475;SDS011;3271;51.910;5.840;2022-10-31T00:24:59;10.80;;;6.03;;
6475;SDS011;3271;51.910;5.840;2022-10-31T00:27:25;9.15;;;5.80;;
6475;SDS011;3271;51.910;5.840;2022-10-31T00:29:51;6.97;;;5.50;;
6475;SDS011;3271;51.910;5.840;2022-10-31T00:32:16;6.28;;;5.47;;
6475;SDS011;3271;51.910;5.840;2022-10-31T00:34:42;8.70;;;5.72;;
6475;SDS011;3271;51.910;5.840;2022-10-31T00:37:08;7.05;;;5.10;;
6475;SDS011;3271;51.910;5.840;2022-10-31T00:39:34;6.05;;;5.47;;
6475;SDS011;3271;51.910;5.840;2022-10-31T00:42:00;6.13;;;5.53;;
6475;SDS011;3271;51.910;5.840;2022-10-31T00:44:26;7.22;;;6.38;;
6475;SDS011;3271;51.910;5.840;2022-10-31T00:46:52;6.65;;;5.65;;
6475;SDS011;3271;51.910;5.840;2022-10-31T00:49:18;8.43;;;6.43;;
6475;SDS011;3271;51.910;5.840;2022-10-31T00:51:44;6.22;;;5.28;;
6475;SDS011;3271;51.910;5.840;2022-10-31T00:54:10;5.38;;;4.88;;
6475;SDS011;3271;51.910;5.840;2022-10-31T00:56:35;6.60;;;5.68;;
6475;SDS011;3271;51.910;5.840;2022-10-31T00:59:01;6.82;;;5.35;;
6475;SDS011;3271;51.910;5.840;2022-10-31T01:01:27;7.35;;;5.45;;
6475;SDS011;3271;51.910;5.840;2022-10-31T01:03:53;7.35;;;5.63;;
6475;SDS011;3271;51.910;5.840;2022-10-31T01:06:19;7.47;;;5.93;;
6475;SDS011;3271;51.910;5.840;2022-10-31T01:08:46;8.35;;;5.90;;
6475;SDS011;3271;51.910;5.840;2022-10-31T01:11:14;8.65;;;5.88;;
6475;SDS011;3271;51.910;5.840;2022-10-31T01:13:40;7.63;;;5.25;;
6475;SDS011;3271;51.910;5.840;2022-10-31T01:16:07;7.07;;;6.47;;
6475;SDS011;3271;51.910;5.840;2022-10-31T01:18:33;12.43;;;6.85;;
6475;SDS011;3271;51.910;5.840;2022-10-31T01:21:00;8.10;;;5.93;;
6475;SDS011;3271;51.910;5.840;2022-10-31T01:23:27;7.72;;;5.38;;
6475;SDS011;3271;51.910;5.840;2022-10-31T01:26:07;7.68;;;5.65;;
6475;SDS011;3271;51.910;5.840;2022-10-31T01:28:33;9.45;;;5.72;;
6475;SDS011;3271;51.910;5.840;2022-10-31T01:31:00;7.00;;;5.50;;
6475;SDS011;3271;51.910;5.840;2022-10-31T01:33:27;7.07;;;6.00;;
6475;SDS011;3271;51.910;5.840;2022-10-31T01:35:52;6.40;;;5.78;;
6475;SDS011;3271;51.910;5.840;2022-10-31T01:38:18;6.93;;;5.78;;
6475;SDS011;3271;51.910;5.840;2022-10-31T01:40:44;7.72;;;5.88;;
6475;SDS011;3271;51.910;5.840;2022-10-31T01:43:12;6.93;;;5.57;;
6475;SDS011;3271;51.910;5.840;2022-10-31T01:45:38;8.23;;;5.70;;
6475;SDS011;3271;51.910;5.840;2022-10-31T01:48:04;7.20;;;5.43;;
6475;SDS011;3271;51.910;5.840;2022-10-31T01:50:31;6.88;;;6.15;;
6475;SDS011;3271;51.910;5.840;2022-10-31T01:52:58;7.60;;;5.70;;
6475;SDS011;3271;51.910;5.840;2022-10-31T01:55:26;10.90;;;6.60;;
6475;SDS011;3271;51.910;5.840;2022-10-31T01:57:55;8.75;;;6.05;;
6475;SDS011;3271;51.910;5.840;2022-10-31T02:00:21;8.32;;;5.75;;
6475;SDS011;3271;51.910;5.840;2022-10-31T02:02:48;10.82;;;5.82;;
6475;SDS011;3271;51.910;5.840;2022-10-31T02:05:21;6.32;;;5.70;;
6475;SDS011;3271;51.910;5.840;2022-10-31T02:10:15;7.68;;;6.50;;
6475;SDS011;3271;51.910;5.840;2022-10-31T02:12:41;7.85;;;6.85;;
6475;SDS011;3271;51.910;5.840;2022-10-31T02:15:08;6.20;;;5.65;;
6475;SDS011;3271;51.910;5.840;2022-10-31T02:17:34;9.48;;;7.18;;
6475;SDS011;3271;51.910;5.840;2022-10-31T02:20:04;8.50;;;6.63;;
6475;SDS011;3271;51.910;5.840;2022-10-31T02:25:31;8.38;;;6.65;;
6475;SDS011;3271;51.910;5.840;2022-10-31T02:30:34;8.13;;;6.90;;
6475;SDS011;3271;51.910;5.840;2022-10-31T02:38:08;9.48;;;7.75;;
6475;SDS011;3271;51.910;5.840;2022-10-31T02:41:01;8.43;;;7.22;;
6475;SDS011;3271;51.910;5.840;2022-10-31T02:43:29;9.45;;;7.43;;
6475;SDS011;3271;51.910;5.840;2022-10-31T02:46:01;7.25;;;6.50;;
6475;SDS011;3271;51.910;5.840;2022-10-31T02:48:28;8.95;;;7.03;;
6475;SDS011;3271;51.910;5.840;2022-10-31T02:50:56;8.38;;;6.32;;
6475;SDS011;3271;51.910;5.840;2022-10-31T02:53:23;8.57;;;6.18;;
6475;SDS011;3271;51.910;5.840;2022-10-31T02:55:59;8.60;;;6.70;;
6475;SDS011;3271;51.910;5.840;2022-10-31T02:58:26;8.18;;;6.32;;
6475;SDS011;3271;51.910;5.840;2022-10-31T03:03:53;7.68;;;6.60;;
6475;SDS011;3271;51.910;5.840;2022-10-31T03:06:32;9.80;;;6.75;;
6475;SDS011;3271;51.910;5.840;2022-10-31T03:11:53;7.75;;;6.80;;
6475;SDS011;3271;51.910;5.840;2022-10-31T03:14:21;7.60;;;6.82;;
6475;SDS011;3271;51.910;5.840;2022-10-31T03:16:48;10.90;;;7.60;;
6475;SDS011;3271;51.910;5.840;2022-10-31T03:22:01;9.98;;;7.10;;
6475;SDS011;3271;51.910;5.840;2022-10-31T03:24:30;8.57;;;6.65;;
6475;SDS011;3271;51.910;5.840;2022-10-31T03:26:57;9.55;;;6.78;;
6475;SDS011;3271;51.910;5.840;2022-10-31T03:29:26;7.85;;;6.82;;
6475;SDS011;3271;51.910;5.840;2022-10-31T03:31:54;7.70;;;6.85;;
6475;SDS011;3271;51.910;5.840;2022-10-31T03:34:21;8.20;;;6.90;;
6475;SDS011;3271;51.910;5.840;2022-10-31T03:36:48;10.88;;;6.40;;
6475;SDS011;3271;51.910;5.840;2022-10-31T03:39:16;9.07;;;6.28;;
6475;SDS011;3271;51.910;5.840;2022-10-31T03:41:43;9.35;;;6.50;;
6475;SDS011;3271;51.910;5.840;2022-10-31T03:44:15;8.07;;;5.95;;
6475;SDS011;3271;51.910;5.840;2022-10-31T03:46:42;9.43;;;6.90;;
6475;SDS011;3271;51.910;5.840;2022-10-31T03:49:08;7.63;;;6.25;;
6475;SDS011;3271;51.910;5.840;2022-10-31T03:51:39;8.27;;;5.82;;
6475;SDS011;3271;51.910;5.840;2022-10-31T03:56:36;8.93;;;5.75;;
6475;SDS011;3271;51.910;5.840;2022-10-31T04:01:36;10.27;;;6.20;;
6475;SDS011;3271;51.910;5.840;2022-10-31T04:04:04;10.50;;;6.95;;
6475;SDS011;3271;51.910;5.840;2022-10-31T04:06:31;6.80;;;6.10;;
6475;SDS011;3271;51.910;5.840;2022-10-31T04:08:59;7.78;;;5.88;;
6475;SDS011;3271;51.910;5.840;2022-10-31T04:11:27;6.78;;;6.10;;
6475;SDS011;3271;51.910;5.840;2022-10-31T04:13:54;7.10;;;6.40;;
6475;SDS011;3271;51.910;5.840;2022-10-31T04:16:21;6.60;;;6.00;;
6475;SDS011;3271;51.910;5.840;2022-10-31T04:18:48;7.32;;;6.43;;
6475;SDS011;3271;51.910;5.840;2022-10-31T04:21:14;7.72;;;5.55;;
6475;SDS011;3271;51.910;5.840;2022-10-31T04:23:40;6.90;;;5.53;;
6475;SDS011;3271;51.910;5.840;2022-10-31T04:26:06;10.25;;;6.07;;
6475;SDS011;3271;51.910;5.840;2022-10-31T04:28:32;7.40;;;6.63;;
6475;SDS011;3271;51.910;5.840;2022-10-31T04:30:58;7.55;;;6.07;;
6475;SDS011;3271;51.910;5.840;2022-10-31T04:33:24;7.47;;;6.45;;
6475;SDS011;3271;51.910;5.840;2022-10-31T04:35:50;10.93;;;6.68;;
6475;SDS011;3271;51.910;5.840;2022-10-31T04:38:16;7.18;;;5.95;;
6475;SDS011;3271;51.910;5.840;2022-10-31T04:40:42;9.88;;;7.15;;
6475;SDS011;3271;51.910;5.840;2022-10-31T04:43:08;8.15;;;6.40;;
6475;SDS011;3271;51.910;5.840;2022-10-31T04:45:34;6.82;;;6.10;;
6475;SDS011;3271;51.910;5.840;2022-10-31T04:48:00;7.55;;;6.22;;
6475;SDS011;3271;51.910;5.840;2022-10-31T04:50:26;6.72;;;6.05;;
6475;SDS011;3271;51.910;5.840;2022-10-31T04:52:52;7.93;;;6.38;;
6475;SDS011;3271;51.910;5.840;2022-10-31T04:55:18;7.30;;;5.53;;
6475;SDS011;3271;51.910;5.840;2022-10-31T04:57:44;9.88;;;6.72;;
6475;SDS011;3271;51.910;5.840;2022-10-31T05:00:11;8.18;;;7.20;;
6475;SDS011;3271;51.910;5.840;2022-10-31T05:02:50;8.40;;;6.18;;
6475;SDS011;3271;51.910;5.840;2022-10-31T05:05:17;8.52;;;5.90;;
6475;SDS011;3271;51.910;5.840;2022-10-31T05:07:44;6.95;;;6.28;;
6475;SDS011;3271;51.910;5.840;2022-10-31T05:10:10;7.30;;;6.05;;
6475;SDS011;3271;51.910;5.840;2022-10-31T05:12:37;6.70;;;6.05;;
6475;SDS011;3271;51.910;5.840;2022-10-31T05:15:03;8.75;;;6.43;;
6475;SDS011;3271;51.910;5.840;2022-10-31T05:17:30;8.02;;;6.57;;
6475;SDS011;3271;51.910;5.840;2022-10-31T05:19:56;6.40;;;5.80;;
6475;SDS011;3271;51.910;5.840;2022-10-31T05:22:22;6.32;;;5.72;;
6475;SDS011;3271;51.910;5.840;2022-10-31T05:24:48;6.88;;;6.07;;
6475;SDS011;3271;51.910;5.840;2022-10-31T05:27:14;9.05;;;6.43;;
6475;SDS011;3271;51.910;5.840;2022-10-31T05:29:40;10.43;;;6.82;;
6475;SDS011;3271;51.910;5.840;2022-10-31T05:32:06;8.27;;;6.97;;
6475;SDS011;3271;51.910;5.840;2022-10-31T05:34:31;7.50;;;5.95;;
6475;SDS011;3271;51.910;5.840;2022-10-31T05:36:57;10.00;;;8.05;;
6475;SDS011;3271;51.910;5.840;2022-10-31T05:39:23;7.00;;;6.03;;
6475;SDS011;3271;51.910;5.840;2022-10-31T05:41:49;8.45;;;7.57;;
6475;SDS011;3271;51.910;5.840;2022-10-31T05:44:15;10.77;;;7.00;;
6475;SDS011;3271;51.910;5.840;2022-10-31T05:46:41;9.38;;;7.28;;
6475;SDS011;3271;51.910;5.840;2022-10-31T05:49:07;8.60;;;7.13;;
6475;SDS011;3271;51.910;5.840;2022-10-31T05:51:33;7.70;;;6.53;;
6475;SDS011;3271;51.910;5.840;2022-10-31T05:53:59;9.30;;;7.25;;
6475;SDS011;3271;51.910;5.840;2022-10-31T05:56:25;8.48;;;7.15;;
6475;SDS011;3271;51.910;5.840;2022-10-31T05:58:50;8.85;;;7.28;;
6475;SDS011;3271;51.910;5.840;2022-10-31T06:01:16;8.55;;;7.15;;
6475;SDS011;3271;51.910;5.840;2022-10-31T06:03:42;7.82;;;7.03;;
6475;SDS011;3271;51.910;5.840;2022-10-31T06:06:08;7.93;;;7.05;;
6475;SDS011;3271;51.910;5.840;2022-10-31T06:08:34;7.40;;;6.28;;
6475;SDS011;3271;51.910;5.840;2022-10-31T06:11:00;7.80;;;6.07;;
6475;SDS011;3271;51.910;5.840;2022-10-31T06:13:26;6.20;;;5.60;;
6475;SDS011;3271;51.910;5.840;2022-10-31T06:15:52;9.82;;;6.38;;
6475;SDS011;3271;51.910;5.840;2022-10-31T06:18:18;7.70;;;5.95;;
6475;SDS011;3271;51.910;5.840;2022-10-31T06:20:44;8.13;;;6.13;;
6475;SDS011;3271;51.910;5.840;2022-10-31T06:23:10;7.63;;;6.32;;
6475;SDS011;3271;51.910;5.840;2022-10-31T06:25:36;10.88;;;6.75;;
6475;SDS011;3271;51.910;5.840;2022-10-31T06:28:02;9.43;;;7.55;;
6475;SDS011;3271;51.910;5.840;2022-10-31T06:30:28;9.75;;;7.40;;
6475;SDS011;3271;51.910;5.840;2022-10-31T06:32:54;10.02;;;7.20;;
6475;SDS011;3271;51.910;5.840;2022-10-31T06:35:20;12.18;;;6.78;;
6475;SDS011;3271;51.910;5.840;2022-10-31T06:37:52;11.27;;;6.93;;
6475;SDS011;3271;51.910;5.840;2022-10-31T06:40:18;11.88;;;7.70;;
6475;SDS011;3271;51.910;5.840;2022-10-31T06:42:44;9.90;;;7.53;;
6475;SDS011;3271;51.910;5.840;2022-10-31T06:45:10;8.63;;;7.45;;
6475;SDS011;3271;51.910;5.840;2022-10-31T06:47:36;10.80;;;7.80;;
6475;SDS011;3271;51.910;5.840;2022-10-31T06:50:02;9.60;;;7.95;;
6475;SDS011;3271;51.910;5.840;2022-10-31T06:52:28;8.65;;;6.88;;
6475;SDS011;3271;51.910;5.840;2022-10-31T06:54:54;11.30;;;7.25;;
6475;SDS011;3271;51.910;5.840;2022-10-31T06:57:20;9.30;;;6.88;;
6475;SDS011;3271;51.910;5.840;2022-10-31T06:59:46;8.93;;;7.00;;
6475;SDS011;3271;51.910;5.840;2022-10-31T07:02:12;9.18;;;7.20;;
6475;SDS011;3271;51.910;5.840;2022-10-31T07:04:38;10.73;;;7.43;;
6475;SDS011;3271;51.910;5.840;2022-10-31T07:07:03;7.13;;;6.43;;
6475;SDS011;3271;51.910;5.840;2022-10-31T07:09:29;8.18;;;6.68;;
6475;SDS011;3271;51.910;5.840;2022-10-31T07:11:55;6.85;;;6.15;;
6475;SDS011;3271;51.910;5.840;2022-10-31T07:14:21;6.35;;;5.75;;
6475;SDS011;3271;51.910;5.840;2022-10-31T07:16:48;7.22;;;5.68;;
6475;SDS011;3271;51.910;5.840;2022-10-31T07:19:14;5.95;;;5.45;;
6475;SDS011;3271;51.910;5.840;2022-10-31T07:21:40;6.82;;;6.22;;
6475;SDS011;3271;51.910;5.840;2022-10-31T07:24:06;5.53;;;5.03;;
6475;SDS011;3271;51.910;5.840;2022-10-31T07:26:32;7.25;;;5.45;;
6475;SDS011;3271;51.910;5.840;2022-10-31T07:28:58;5.60;;;5.10;;
6475;SDS011;3271;51.910;5.840;2022-10-31T07:31:24;7.82;;;5.43;;
6475;SDS011;3271;51.910;5.840;2022-10-31T07:33:50;10.52;;;5.70;;
6475;SDS011;3271;51.910;5.840;2022-10-31T07:36:16;11.43;;;6.15;;
6475;SDS011;3271;51.910;5.840;2022-10-31T07:38:42;7.18;;;6.47;;
6475;SDS011;3271;51.910;5.840;2022-10-31T07:41:07;10.38;;;6.88;;
6475;SDS011;3271;51.910;5.840;2022-10-31T07:43:34;8.15;;;6.40;;
6475;SDS011;3271;51.910;5.840;2022-10-31T07:46:00;9.10;;;7.03;;
6475;SDS011;3271;51.910;5.840;2022-10-31T07:48:26;10.95;;;7.47;;
6475;SDS011;3271;51.910;5.840;2022-10-31T07:50:52;9.00;;;6.95;;
6475;SDS011;3271;51.910;5.840;2022-10-31T07:53:18;9.27;;;7.90;;
6475;SDS011;3271;51.910;5.840;2022-10-31T07:55:44;8.13;;;7.30;;
6475;SDS011;3271;51.910;5.840;2022-10-31T07:58:16;12.73;;;7.80;;
6475;SDS011;3271;51.910;5.840;2022-10-31T08:00:43;13.35;;;8.35;;
6475;SDS011;3271;51.910;5.840;2022-10-31T08:03:10;13.50;;;8.95;;
6475;SDS011;3271;51.910;5.840;2022-10-31T08:05:37;9.48;;;8.43;;
6475;SDS011;3271;51.910;5.840;2022-10-31T08:08:03;11.15;;;8.38;;
6475;SDS011;3271;51.910;5.840;2022-10-31T08:10:30;10.02;;;8.43;;
6475;SDS011;3271;51.910;5.840;2022-10-31T08:12:57;10.30;;;8.68;;
6475;SDS011;3271;51.910;5.840;2022-10-31T08:15:23;9.10;;;7.90;;
6475;SDS011;3271;51.910;5.840;2022-10-31T08:17:49;9.15;;;8.25;;
6475;SDS011;3271;51.910;5.840;2022-10-31T08:20:15;12.27;;;8.65;;
6475;SDS011;3271;51.910;5.840;2022-10-31T08:22:41;11.07;;;9.90;;
6475;SDS011;3271;51.910;5.840;2022-10-31T08:25:07;10.23;;;8.40;;
6475;SDS011;3271;51.910;5.840;2022-10-31T08:27:33;10.15;;;8.45;;
6475;SDS011;3271;51.910;5.840;2022-10-31T08:29:59;15.05;;;8.88;;
6475;SDS011;3271;51.910;5.840;2022-10-31T08:32:25;10.25;;;8.52;;
6475;SDS011;3271;51.910;5.840;2022-10-31T08:34:51;9.73;;;8.35;;
6475;SDS011;3271;51.910;5.840;2022-10-31T08:37:17;9.90;;;8.93;;
6475;SDS011;3271;51.910;5.840;2022-10-31T08:39:45;11.93;;;9.25;;
6475;SDS011;3271;51.910;5.840;2022-10-31T08:42:11;10.45;;;9.38;;
6475;SDS011;3271;51.910;5.840;2022-10-31T08:44:37;12.50;;;9.27;;
6475;SDS011;3271;51.910;5.840;2022-10-31T08:47:03;14.88;;;10.50;;
6475;SDS011;3271;51.910;5.840;2022-10-31T08:49:29;13.07;;;9.70;;
6475;SDS011;3271;51.910;5.840;2022-10-31T08:51:55;11.57;;;8.93;;
6475;SDS011;3271;51.910;5.840;2022-10-31T08:54:21;11.23;;;8.48;;
6475;SDS011;3271;51.910;5.840;2022-10-31T08:56:47;11.32;;;9.50;;
6475;SDS011;3271;51.910;5.840;2022-10-31T08:59:13;11.63;;;10.32;;
6475;SDS011;3271;51.910;5.840;2022-10-31T09:01:38;12.00;;;9.95;;
6475;SDS011;3271;51.910;5.840;2022-10-31T09:04:04;14.45;;;10.70;;
6475;SDS011;3271;51.910;5.840;2022-10-31T09:06:30;12.10;;;9.57;;
6475;SDS011;3271;51.910;5.840;2022-10-31T09:08:56;15.93;;;11.15;;
6475;SDS011;3271;51.910;5.840;2022-10-31T09:11:22;13.63;;;10.93;;
6475;SDS011;3271;51.910;5.840;2022-10-31T09:13:48;10.63;;;9.52;;
6475;SDS011;3271;51.910;5.840;2022-10-31T09:16:14;13.48;;;10.90;;
6475;SDS011;3271;51.910;5.840;2022-10-31T09:18:40;13.90;;;10.65;;
6475;SDS011;3271;51.910;5.840;2022-10-31T09:21:07;16.20;;;9.63;;
6475;SDS011;3271;51.910;5.840;2022-10-31T09:23:32;15.13;;;10.40;;
6475;SDS011;3271;51.910;5.840;2022-10-31T09:25:59;14.32;;;9.95;;
6475;SDS011;3271;51.910;5.840;2022-10-31T09:28:26;15.05;;;10.43;;
6475;SDS011;3271;51.910;5.840;2022-10-31T09:30:52;13.40;;;10.73;;
6475;SDS011;3271;51.910;5.840;2022-10-31T09:33:19;13.80;;;10.70;;
6475;SDS011;3271;51.910;5.840;2022-10-31T09:35:45;99.07;;;76.28;;
6475;SDS011;3271;51.910;5.840;2022-10-31T09:38:15;170.05;;;130.45;;
6475;SDS011;3271;51.910;5.840;2022-10-31T09:40:42;71.50;;;53.80;;
6475;SDS011;3271;51.910;5.840;2022-10-31T09:43:22;27.08;;;22.13;;
6475;SDS011;3271;51.910;5.840;2022-10-31T09:51:08;14.82;;;10.68;;
6475;SDS011;3271;51.910;5.840;2022-10-31T09:53:46;16.65;;;11.68;;
6475;SDS011;3271;51.910;5.840;2022-10-31T09:56:16;24.90;;;14.32;;
6475;SDS011;3271;51.910;5.840;2022-10-31T09:58:45;35.38;;;15.35;;
6475;SDS011;3271;51.910;5.840;2022-10-31T10:01:19;27.13;;;14.88;;
6475;SDS011;3271;51.910;5.840;2022-10-31T10:03:49;19.42;;;12.02;;
6475;SDS011;3271;51.910;5.840;2022-10-31T10:06:19;20.55;;;12.93;;
6475;SDS011;3271;51.910;5.840;2022-10-31T10:08:47;19.42;;;13.70;;
6475;SDS011;3271;51.910;5.840;2022-10-31T10:19:07;19.92;;;12.77;;
6475;SDS011;3271;51.910;5.840;2022-10-31T10:21:41;22.38;;;14.32;;
6475;SDS011;3271;51.910;5.840;2022-10-31T10:24:19;20.40;;;12.65;;
6475;SDS011;3271;51.910;5.840;2022-10-31T10:26:53;15.95;;;11.68;;
6475;SDS011;3271;51.910;5.840;2022-10-31T10:29:34;17.38;;;13.75;;
6475;SDS011;3271;51.910;5.840;2022-10-31T10:32:03;16.55;;;12.25;;
6475;SDS011;3271;51.910;5.840;2022-10-31T10:34:33;18.73;;;12.85;;
6475;SDS011;3271;51.910;5.840;2022-10-31T10:37:02;21.23;;;13.05;;
6475;SDS011;3271;51.910;5.840;2022-10-31T10:41:57;22.35;;;13.52;;
6475;SDS011;3271;51.910;5.840;2022-10-31T10:44:44;16.70;;;12.73;;
6475;SDS011;3271;51.910;5.840;2022-10-31T10:47:33;66.88;;;49.05;;
6475;SDS011;3271;51.910;5.840;2022-10-31T10:50:18;36.70;;;27.00;;
6475;SDS011;3271;51.910;5.840;2022-10-31T10:52:48;64.07;;;48.42;;
6475;SDS011;3271;51.910;5.840;2022-10-31T10:55:24;24.35;;;16.40;;
6475;SDS011;3271;51.910;5.840;2022-10-31T10:57:55;21.15;;;14.80;;
6475;SDS011;3271;51.910;5.840;2022-10-31T11:00:26;21.98;;;16.10;;
6475;SDS011;3271;51.910;5.840;2022-10-31T11:02:52;19.85;;;13.88;;
6475;SDS011;3271;51.910;5.840;2022-10-31T11:05:24;18.95;;;14.27;;
6475;SDS011;3271;51.910;5.840;2022-10-31T11:07:50;23.95;;;17.00;;
6475;SDS011;3271;51.910;5.840;2022-10-31T11:10:16;22.50;;;15.77;;
6475;SDS011;3271;51.910;5.840;2022-10-31T11:12:43;26.02;;;17.30;;
6475;SDS011;3271;51.910;5.840;2022-10-31T11:15:20;26.35;;;16.83;;
6475;SDS011;3271;51.910;5.840;2022-10-31T11:17:48;21.80;;;15.25;;
6475;SDS011;3271;51.910;5.840;2022-10-31T11:22:41;23.20;;;15.18;;
6475;SDS011;3271;51.910;5.840;2022-10-31T11:27:43;22.63;;;16.60;;
6475;SDS011;3271;51.910;5.840;2022-10-31T11:30:09;21.50;;;14.82;;
6475;SDS011;3271;51.910;5.840;2022-10-31T11:32:35;20.67;;;14.50;;
6475;SDS011;3271;51.910;5.840;2022-10-31T11:35:03;25.80;;;16.02;;
6475;SDS011;3271;51.910;5.840;2022-10-31T11:37:35;22.67;;;16.30;;
6475;SDS011;3271;51.910;5.840;2022-10-31T11:40:06;24.33;;;17.77;;
6475;SDS011;3271;51.910;5.840;2022-10-31T11:42:37;25.80;;;17.70;;
6475;SDS011;3271;51.910;5.840;2022-10-31T11:45:05;25.02;;;17.90;;
6475;SDS011;3271;51.910;5.840;2022-10-31T11:47:33;22.90;;;16.63;;
6475;SDS011;3271;51.910;5.840;2022-10-31T11:50:00;23.58;;;15.70;;
6475;SDS011;3271;51.910;5.840;2022-10-31T11:52:28;26.73;;;17.98;;
6475;SDS011;3271;51.910;5.840;2022-10-31T11:57:25;23.83;;;17.73;;
6475;SDS011;3271;51.910;5.840;2022-10-31T11:59:56;21.25;;;16.42;;
6475;SDS011;3271;51.910;5.840;2022-10-31T12:02:22;24.42;;;17.42;;
6475;SDS011;3271;51.910;5.840;2022-10-31T12:04:51;28.00;;;17.80;;
6475;SDS011;3271;51.910;5.840;2022-10-31T12:07:18;22.77;;;17.08;;
6475;SDS011;3271;51.910;5.840;2022-10-31T12:09:44;32.40;;;19.02;;
6475;SDS011;3271;51.910;5.840;2022-10-31T12:17:11;23.35;;;16.95;;
6475;SDS011;3271;51.910;5.840;2022-10-31T12:22:29;28.75;;;17.15;;
6475;SDS011;3271;51.910;5.840;2022-10-31T12:25:03;28.88;;;17.98;;
6475;SDS011;3271;51.910;5.840;2022-10-31T12:27:48;23.85;;;17.10;;
6475;SDS011;3271;51.910;5.840;2022-10-31T12:30:19;24.02;;;18.33;;
6475;SDS011;3271;51.910;5.840;2022-10-31T12:38:03;28.35;;;17.73;;
6475;SDS011;3271;51.910;5.840;2022-10-31T12:43:26;24.77;;;18.30;;
6475;SDS011;3271;51.910;5.840;2022-10-31T12:45:56;27.60;;;18.17;;
6475;SDS011;3271;51.910;5.840;2022-10-31T12:48:42;30.92;;;17.77;;
6475;SDS011;3271;51.910;5.840;2022-10-31T12:53:41;27.23;;;17.08;;
6475;SDS011;3271;51.910;5.840;2022-10-31T12:56:24;26.42;;;17.42;;
6475;SDS011;3271;51.910;5.840;2022-10-31T13:01:40;26.92;;;16.00;;
6475;SDS011;3271;51.910;5.840;2022-10-31T13:04:21;26.67;;;17.15;;
6475;SDS011;3271;51.910;5.840;2022-10-31T13:06:50;30.88;;;17.48;;
6475;SDS011;3271;51.910;5.840;2022-10-31T13:09:20;29.88;;;18.30;;
6475;SDS011;3271;51.910;5.840;2022-10-31T13:11:50;24.45;;;18.05;;
6475;SDS011;3271;51.910;5.840;2022-10-31T13:14:25;28.73;;;18.85;;
6475;SDS011;3271;51.910;5.840;2022-10-31T13:16:52;29.50;;;17.42;;
6475;SDS011;3271;51.910;5.840;2022-10-31T13:19:26;29.42;;;17.60;;
6475;SDS011;3271;51.910;5.840;2022-10-31T13:24:21;26.10;;;17.27;;
6475;SDS011;3271;51.910;5.840;2022-10-31T13:26:52;28.33;;;18.10;;
6475;SDS011;3271;51.910;5.840;2022-10-31T13:31:48;31.92;;;19.38;;
6475;SDS011;3271;51.910;5.840;2022-10-31T13:34:25;33.88;;;18.10;;
6475;SDS011;3271;51.910;5.840;2022-10-31T13:36:54;30.80;;;17.05;;
6475;SDS011;3271;51.910;5.840;2022-10-31T13:39:49;30.48;;;18.05;;
6475;SDS011;3271;51.910;5.840;2022-10-31T13:42:13;31.80;;;18.63;;
6475;SDS011;3271;51.910;5.840;2022-10-31T13:44:40;31.05;;;17.67;;
6475;SDS011;3271;51.910;5.840;2022-10-31T13:49:50;32.00;;;18.50;;
6475;SDS011;3271;51.910;5.840;2022-10-31T13:52:25;30.38;;;18.13;;
6475;SDS011;3271;51.910;5.840;2022-10-31T13:54:52;28.40;;;17.55;;
6475;SDS011;3271;51.910;5.840;2022-10-31T13:57:41;25.25;;;16.65;;
6475;SDS011;3271;51.910;5.840;2022-10-31T14:02:37;25.95;;;16.13;;
6475;SDS011;3271;51.910;5.840;2022-10-31T14:07:45;24.15;;;15.82;;
6475;SDS011;3271;51.910;5.840;2022-10-31T14:10:24;26.85;;;15.55;;
6475;SDS011;3271;51.910;5.840;2022-10-31T14:12:51;27.85;;;17.00;;
6475;SDS011;3271;51.910;5.840;2022-10-31T14:15:19;28.17;;;17.58;;
6475;SDS011;3271;51.910;5.840;2022-10-31T14:17:53;25.58;;;15.98;;
6475;SDS011;3271;51.910;5.840;2022-10-31T14:22:59;27.08;;;15.98;;
6475;SDS011;3271;51.910;5.840;2022-10-31T14:25:35;26.40;;;17.48;;
6475;SDS011;3271;51.910;5.840;2022-10-31T14:28:18;23.90;;;15.88;;
6475;SDS011;3271;51.910;5.840;2022-10-31T14:30:52;28.92;;;15.30;;
6475;SDS011;3271;51.910;5.840;2022-10-31T14:33:18;32.08;;;18.48;;
6475;SDS011;3271;51.910;5.840;2022-10-31T14:38:35;25.55;;;16.33;;
6475;SDS011;3271;51.910;5.840;2022-10-31T14:41:09;31.75;;;17.13;;
6475;SDS011;3271;51.910;5.840;2022-10-31T14:43:44;32.25;;;16.25;;
6475;SDS011;3271;51.910;5.840;2022-10-31T14:49:17;33.85;;;17.98;;
6475;SDS011;3271;51.910;5.840;2022-10-31T14:51:44;37.20;;;17.10;;
6475;SDS011;3271;51.910;5.840;2022-10-31T14:54:15;36.17;;;16.77;;
6475;SDS011;3271;51.910;5.840;2022-10-31T14:56:46;29.90;;;16.30;;
6475;SDS011;3271;51.910;5.840;2022-10-31T14:59:14;35.65;;;15.43;;
6475;SDS011;3271;51.910;5.840;2022-10-31T15:01:40;26.80;;;16.98;;
6475;SDS011;3271;51.910;5.840;2022-10-31T15:04:20;38.15;;;18.13;;
6475;SDS011;3271;51.910;5.840;2022-10-31T15:06:49;30.42;;;17.52;;
6475;SDS011;3271;51.910;5.840;2022-10-31T15:09:29;26.90;;;15.90;;
6475;SDS011;3271;51.910;5.840;2022-10-31T15:11:58;21.67;;;14.93;;
6475;SDS011;3271;51.910;5.840;2022-10-31T15:14:28;25.27;;;15.43;;
6475;SDS011;3271;51.910;5.840;2022-10-31T15:16:58;25.00;;;15.73;;
6475;SDS011;3271;51.910;5.840;2022-10-31T15:19:27;34.65;;;17.10;;
6475;SDS011;3271;51.910;5.840;2022-10-31T15:21:54;32.60;;;16.83;;
6475;SDS011;3271;51.910;5.840;2022-10-31T15:24:22;43.90;;;16.67;;
6475;SDS011;3271;51.910;5.840;2022-10-31T15:26:49;35.03;;;16.52;;
6475;SDS011;3271;51.910;5.840;2022-10-31T15:29:17;33.30;;;16.98;;
6475;SDS011;3271;51.910;5.840;2022-10-31T15:31:50;29.90;;;15.98;;
6475;SDS011;3271;51.910;5.840;2022-10-31T15:34:19;27.88;;;16.17;;
6475;SDS011;3271;51.910;5.840;2022-10-31T15:36:47;24.10;;;16.48;;
6475;SDS011;3271;51.910;5.840;2022-10-31T15:39:14;27.00;;;16.83;;
6475;SDS011;3271;51.910;5.840;2022-10-31T15:44:12;28.08;;;15.02;;
6475;SDS011;3271;51.910;5.840;2022-10-31T15:46:39;36.08;;;16.35;;
6475;SDS011;3271;51.910;5.840;2022-10-31T15:49:10;34.80;;;17.85;;
6475;SDS011;3271;51.910;5.840;2022-10-31T15:51:41;35.25;;;15.63;;
6475;SDS011;3271;51.910;5.840;2022-10-31T15:54:10;47.50;;;16.67;;
6475;SDS011;3271;51.910;5.840;2022-10-31T15:56:37;46.45;;;16.90;;
6475;SDS011;3271;51.910;5.840;2022-10-31T15:59:03;35.65;;;16.45;;
6475;SDS011;3271;51.910;5.840;2022-10-31T16:01:30;27.70;;;15.32;;
6475;SDS011;3271;51.910;5.840;2022-10-31T16:04:04;28.15;;;16.13;;
6475;SDS011;3271;51.910;5.840;2022-10-31T16:06:31;27.25;;;15.32;;
6475;SDS011;3271;51.910;5.840;2022-10-31T16:08:58;33.53;;;15.63;;
6475;SDS011;3271;51.910;5.840;2022-10-31T16:14:04;32.95;;;16.08;;
6475;SDS011;3271;51.910;5.840;2022-10-31T16:16:31;25.98;;;15.32;;
6475;SDS011;3271;51.910;5.840;2022-10-31T16:18:58;27.10;;;15.68;;
6475;SDS011;3271;51.910;5.840;2022-10-31T16:21:29;24.05;;;14.90;;
6475;SDS011;3271;51.910;5.840;2022-10-31T16:23:57;27.13;;;15.35;;
6475;SDS011;3271;51.910;5.840;2022-10-31T16:26:24;24.23;;;15.07;;
6475;SDS011;3271;51.910;5.840;2022-10-31T16:28:54;30.88;;;15.73;;
6475;SDS011;3271;51.910;5.840;2022-10-31T16:31:26;50.75;;;19.00;;
6475;SDS011;3271;51.910;5.840;2022-10-31T16:34:01;32.38;;;15.40;;
6475;SDS011;3271;51.910;5.840;2022-10-31T16:38:54;34.28;;;17.80;;
6475;SDS011;3271;51.910;5.840;2022-10-31T16:41:20;32.72;;;16.13;;
6475;SDS011;3271;51.910;5.840;2022-10-31T16:43:46;26.48;;;16.23;;
6475;SDS011;3271;51.910;5.840;2022-10-31T16:46:14;31.85;;;17.40;;
6475;SDS011;3271;51.910;5.840;2022-10-31T16:48:40;32.10;;;19.05;;